createdAt,value
2022-12-11T00:02:08.949Z,40.65
2022-12-11T00:04:37.766Z,34.38
2022-12-11T00:07:09.963Z,36.05
2022-12-11T00:09:37.727Z,35.70
2022-12-11T00:12:07.527Z,36.58
2022-12-11T00:14:40.806Z,33.67
2022-12-11T00:17:13.263Z,43.25
2022-12-11T00:19:44.385Z,41.22
2022-12-11T00:22:11.921Z,36.90
2022-12-11T00:24:39.342Z,39.50
2022-12-11T00:27:09.781Z,38.65
2022-12-11T00:29:37.571Z,34.67
2022-12-11T00:32:05.328Z,32.70
2022-12-11T00:34:32.676Z,36.22
2022-12-11T00:37:03.345Z,36.92
2022-12-11T00:39:31.074Z,36.28
2022-12-11T00:42:00.975Z,34.70
2022-12-11T00:44:28.408Z,34.47
2022-12-11T00:46:57.134Z,36.03
2022-12-11T00:49:24.621Z,34.95
2022-12-11T00:51:52.514Z,36.28
2022-12-11T00:54:28.882Z,34.72
2022-12-11T00:56:58.637Z,33.88
2022-12-11T00:59:28.505Z,34.85
2022-12-11T01:02:01.936Z,36.53
2022-12-11T01:04:29.458Z,33.85
2022-12-11T01:06:58.027Z,34.17
2022-12-11T01:09:44.170Z,34.20
2022-12-11T01:12:18.105Z,34.85
2022-12-11T01:14:48.450Z,35.75
2022-12-11T01:17:18.776Z,34.75
2022-12-11T01:19:46.284Z,33.30
2022-12-11T01:22:13.703Z,33.20
2022-12-11T01:24:41.005Z,31.95
2022-12-11T01:27:08.727Z,35.63
2022-12-11T01:29:36.264Z,33.70
2022-12-11T01:32:03.928Z,35.33
2022-12-11T01:34:41.487Z,34.70
2022-12-11T01:37:10.371Z,33.00
2022-12-11T01:39:42.109Z,33.33
2022-12-11T01:42:18.302Z,35.67
2022-12-11T01:44:45.690Z,32.72
2022-12-11T01:47:13.415Z,34.45
2022-12-11T01:49:43.713Z,32.63
2022-12-11T01:52:21.697Z,34.42
2022-12-11T01:54:51.420Z,35.00
2022-12-11T01:57:18.733Z,34.95
2022-12-11T01:59:48.856Z,35.90
2022-12-11T02:02:33.536Z,32.10
2022-12-11T02:05:02.984Z,37.28
2022-12-11T02:07:44.471Z,35.20
2022-12-11T02:10:12.846Z,33.03
2022-12-11T02:13:04.358Z,33.70
2022-12-11T02:15:41.649Z,34.95
2022-12-11T02:18:34.568Z,32.88
2022-12-11T02:21:01.757Z,35.33
2022-12-11T02:23:47.079Z,33.90
2022-12-11T02:26:34.265Z,31.67
2022-12-11T02:29:05.539Z,32.78
2022-12-11T02:31:45.226Z,32.10
2022-12-11T02:34:24.859Z,35.05
2022-12-11T02:36:57.169Z,34.08
2022-12-11T02:39:27.070Z,30.92
2022-12-11T02:41:55.264Z,31.15
2022-12-11T02:44:30.499Z,32.95
2022-12-11T02:46:59.144Z,32.70
2022-12-11T02:49:28.222Z,33.55
2022-12-11T02:51:58.133Z,31.52
2022-12-11T02:54:33.421Z,32.45
2022-12-11T02:57:04.923Z,32.42
2022-12-11T02:59:44.339Z,31.73
2022-12-11T03:02:13.795Z,33.25
2022-12-11T03:04:42.157Z,30.98
2022-12-11T03:07:23.459Z,30.50
2022-12-11T03:09:51.515Z,28.95
2022-12-11T03:12:32.792Z,31.80
2022-12-11T03:15:03.067Z,31.38
2022-12-11T03:17:57.181Z,30.50
2022-12-11T03:21:03.716Z,30.23
2022-12-11T03:23:33.639Z,30.67
2022-12-11T03:26:08.997Z,32.92
2022-12-11T03:28:56.077Z,29.73
2022-12-11T03:31:40.795Z,31.02
2022-12-11T03:34:18.406Z,31.40
2022-12-11T03:36:48.656Z,33.70
2022-12-11T03:39:21.495Z,34.38
2022-12-11T03:41:50.753Z,34.03
2022-12-11T03:44:19.954Z,36.28
2022-12-11T03:46:49.390Z,35.17
2022-12-11T03:49:26.844Z,33.50
2022-12-11T03:51:56.849Z,32.53
2022-12-11T03:54:25.132Z,31.50
2022-12-11T03:56:56.122Z,33.05
2022-12-11T03:59:23.727Z,33.45
2022-12-11T04:01:51.460Z,34.42
2022-12-11T04:04:19.036Z,35.85
2022-12-11T04:06:46.690Z,37.55
2022-12-11T04:09:13.900Z,36.65
2022-12-11T04:11:43.150Z,35.60
2022-12-11T04:14:32.212Z,34.75
2022-12-11T04:17:00.895Z,38.67
2022-12-11T04:19:46.491Z,36.67
2022-12-11T04:22:34.328Z,37.25
2022-12-11T04:25:02.813Z,34.75
2022-12-11T04:28:02.055Z,40.53
2022-12-11T04:30:33.926Z,37.45
2022-12-11T04:33:02.343Z,33.42
2022-12-11T04:35:30.074Z,36.05
2022-12-11T04:37:57.505Z,37.88
2022-12-11T04:40:24.863Z,36.58
2022-12-11T04:42:52.177Z,36.95
2022-12-11T04:45:19.633Z,38.85
2022-12-11T04:47:46.906Z,41.15
2022-12-11T04:50:16.232Z,42.17
2022-12-11T04:52:44.014Z,42.47
2022-12-11T04:55:12.176Z,38.15
2022-12-11T04:57:39.818Z,38.15
2022-12-11T05:00:09.733Z,39.78
2022-12-11T05:02:38.302Z,37.08
2022-12-11T05:05:07.210Z,38.42
2022-12-11T05:07:34.335Z,37.38
2022-12-11T05:10:01.761Z,37.85
2022-12-11T05:12:29.808Z,37.95
2022-12-11T05:14:57.043Z,40.05
2022-12-11T05:17:24.472Z,36.63
2022-12-11T05:19:52.166Z,42.88
2022-12-11T05:22:19.405Z,38.00
2022-12-11T05:24:46.544Z,39.70
2022-12-11T05:27:13.695Z,37.80
2022-12-11T05:29:40.944Z,42.80
2022-12-11T05:32:08.441Z,37.85
2022-12-11T05:34:35.711Z,38.72
2022-12-11T05:37:02.928Z,40.22
2022-12-11T05:39:30.175Z,41.45
2022-12-11T05:41:57.377Z,41.75
2022-12-11T05:44:25.014Z,38.22
2022-12-11T05:46:52.263Z,38.75
2022-12-11T05:49:25.930Z,38.63
2022-12-11T05:51:56.268Z,38.25
2022-12-11T05:54:23.433Z,39.15
2022-12-11T05:56:51.423Z,39.85
2022-12-11T05:59:19.850Z,36.85
2022-12-11T06:01:47.259Z,37.40
2022-12-11T06:04:14.640Z,40.08
2022-12-11T06:06:43.845Z,35.30
2022-12-11T06:09:16.198Z,36.40
2022-12-11T06:11:43.493Z,38.28
2022-12-11T06:14:11.629Z,34.50
2022-12-11T06:16:38.904Z,35.85
2022-12-11T06:19:06.324Z,38.95
2022-12-11T06:21:34.172Z,34.97
2022-12-11T06:24:03.795Z,37.72
2022-12-11T06:26:32.113Z,37.33
2022-12-11T06:28:59.561Z,35.33
2022-12-11T06:31:26.904Z,36.40
2022-12-11T06:33:54.341Z,35.05
2022-12-11T06:36:23.267Z,37.92
2022-12-11T06:38:51.321Z,36.17
2022-12-11T06:41:18.747Z,36.47
2022-12-11T06:43:45.927Z,34.70
2022-12-11T06:46:18.449Z,33.80
2022-12-11T06:48:46.376Z,34.53
2022-12-11T06:51:18.352Z,32.55
2022-12-11T06:53:50.903Z,35.58
2022-12-11T06:56:18.048Z,31.33
2022-12-11T06:58:45.254Z,33.97
2022-12-11T07:01:18.474Z,34.67
2022-12-11T07:03:45.805Z,35.47
2022-12-11T07:06:13.876Z,34.42
2022-12-11T07:08:41.519Z,34.95
2022-12-11T07:11:14.589Z,34.63
2022-12-11T07:16:14.101Z,36.00
2022-12-11T07:18:43.757Z,33.03
2022-12-11T07:21:13.170Z,32.83
2022-12-11T07:23:40.932Z,34.67
2022-12-11T07:26:11.398Z,36.30
2022-12-11T07:28:39.001Z,32.90
2022-12-11T07:31:08.165Z,33.50
2022-12-11T07:33:35.361Z,33.08
2022-12-11T07:36:07.410Z,35.35
2022-12-11T07:38:34.668Z,36.90
2022-12-11T07:41:06.735Z,31.58
2022-12-11T07:43:35.274Z,33.25
2022-12-11T07:46:12.069Z,31.00
2022-12-11T07:48:41.897Z,32.50
2022-12-11T07:51:15.779Z,32.55
2022-12-11T07:53:45.952Z,33.22
2022-12-11T07:56:13.696Z,32.97
2022-12-11T07:58:40.816Z,33.30
2022-12-11T08:01:40.763Z,31.67
2022-12-11T08:04:09.908Z,33.08
2022-12-11T08:06:39.618Z,33.88
2022-12-11T08:09:09.716Z,34.30
2022-12-11T08:11:37.290Z,34.38
2022-12-11T08:14:06.579Z,33.22
2022-12-11T08:16:33.742Z,33.30
2022-12-11T08:19:00.990Z,32.65
2022-12-11T08:21:29.528Z,34.38
2022-12-11T08:23:56.725Z,32.53
2022-12-11T08:26:27.025Z,33.10
2022-12-11T08:28:54.605Z,32.95
2022-12-11T08:31:22.517Z,35.95
2022-12-11T08:33:50.957Z,33.05
2022-12-11T08:36:21.250Z,35.38
2022-12-11T08:38:51.048Z,35.17
2022-12-11T08:41:21.256Z,33.38
2022-12-11T08:43:49.649Z,34.67
2022-12-11T08:46:16.907Z,33.90
2022-12-11T08:48:44.320Z,33.97
2022-12-11T08:51:14.408Z,35.40
2022-12-11T08:53:41.980Z,34.03
2022-12-11T08:56:15.436Z,34.90
2022-12-11T08:58:43.930Z,34.97
2022-12-11T09:01:17.935Z,36.20
2022-12-11T09:03:45.263Z,33.15
2022-12-11T09:06:15.814Z,32.80
2022-12-11T09:08:51.739Z,35.90
2022-12-11T09:11:23.055Z,33.50
2022-12-11T09:13:50.937Z,36.63
2022-12-11T09:16:20.928Z,33.38
2022-12-11T09:18:50.232Z,34.03
2022-12-11T09:21:20.596Z,34.53
2022-12-11T09:23:48.433Z,33.97
2022-12-11T09:26:17.750Z,34.15
2022-12-11T09:28:47.248Z,33.85
2022-12-11T09:31:36.403Z,36.13
2022-12-11T09:34:09.079Z,32.63
2022-12-11T09:36:41.287Z,32.25
2022-12-11T09:39:12.811Z,30.27
2022-12-11T09:42:00.739Z,33.00
2022-12-11T09:44:52.753Z,32.90
2022-12-11T09:47:42.722Z,32.05
2022-12-11T09:50:09.982Z,33.05
2022-12-11T09:52:49.177Z,32.00
2022-12-11T09:55:24.286Z,33.60
2022-12-11T09:58:27.919Z,32.78
2022-12-11T10:01:05.390Z,30.02
2022-12-11T10:03:51.880Z,33.42
2022-12-11T10:07:00.212Z,31.83
2022-12-11T10:09:49.056Z,31.35
2022-12-11T10:12:36.045Z,32.03
2022-12-11T10:15:37.186Z,31.65
2022-12-11T10:18:16.366Z,31.92
2022-12-11T10:20:45.306Z,31.45
2022-12-11T10:23:22.195Z,30.10
2022-12-11T10:26:05.878Z,29.02
2022-12-11T10:28:33.116Z,31.48
2022-12-11T10:31:14.357Z,28.40
2022-12-11T10:34:02.636Z,27.67
2022-12-11T10:36:37.241Z,26.38
2022-12-11T10:39:20.097Z,28.27
2022-12-11T10:41:50.235Z,31.60
2022-12-11T10:44:29.420Z,27.55
2022-12-11T10:47:13.771Z,26.35
2022-12-11T10:50:01.984Z,28.38
2022-12-11T10:52:33.325Z,25.90
2022-12-11T10:55:04.503Z,27.05
2022-12-11T10:57:37.033Z,28.23
2022-12-11T11:00:06.933Z,24.55
2022-12-11T11:02:40.363Z,26.85
2022-12-11T11:05:29.067Z,25.20
2022-12-11T11:08:21.521Z,26.67
2022-12-11T11:10:55.596Z,26.75
2022-12-11T11:13:25.104Z,27.23
2022-12-11T11:16:07.821Z,26.33
2022-12-11T11:18:35.308Z,28.63
2022-12-11T11:21:03.303Z,27.70
2022-12-11T11:23:30.490Z,29.75
2022-12-11T11:26:09.077Z,28.15
2022-12-11T11:29:02.801Z,30.83
2022-12-11T11:31:36.734Z,30.15
2022-12-11T11:34:20.073Z,31.20
2022-12-11T11:39:34.126Z,29.80
2022-12-11T11:42:09.936Z,31.80
2022-12-11T11:44:47.148Z,31.02
2022-12-11T11:47:27.903Z,30.30
2022-12-11T11:50:08.436Z,29.20
